sensor_id;sensor_type;location;lat;lon;timestamp;P1;durP1;ratioP1;P2;durP2;ratioP2
77226;SDS011;66234;47.642;19.144;2023-03-01T00:00:52;22.33;;;11.57;;
77226;SDS011;66234;47.642;19.144;2023-03-01T00:03:55;18.75;;;9.80;;
77226;SDS011;66234;47.642;19.144;2023-03-01T00:06:58;18.70;;;8.88;;
77226;SDS011;66234;47.642;19.144;2023-03-01T00:10:01;16.03;;;9.07;;
77226;SDS011;66234;47.642;19.144;2023-03-01T00:13:05;15.53;;;8.63;;
77226;SDS011;66234;47.642;19.144;2023-03-01T00:16:10;17.40;;;9.18;;
77226;SDS011;66234;47.642;19.144;2023-03-01T00:19:19;15.73;;;8.32;;
77226;SDS011;66234;47.642;19.144;2023-03-01T00:22:24;18.30;;;8.88;;
77226;SDS011;66234;47.642;19.144;2023-03-01T00:25:28;17.67;;;9.23;;
77226;SDS011;66234;47.642;19.144;2023-03-01T00:28:31;14.57;;;8.57;;
77226;SDS011;66234;47.642;19.144;2023-03-01T00:31:34;18.90;;;9.50;;
77226;SDS011;66234;47.642;19.144;2023-03-01T00:34:40;25.73;;;11.45;;
77226;SDS011;66234;47.642;19.144;2023-03-01T00:37:42;26.55;;;11.40;;
77226;SDS011;66234;47.642;19.144;2023-03-01T00:40:47;18.47;;;9.13;;
77226;SDS011;66234;47.642;19.144;2023-03-01T00:43:50;17.93;;;9.17;;
77226;SDS011;66234;47.642;19.144;2023-03-01T00:46:52;17.67;;;9.30;;
77226;SDS011;66234;47.642;19.144;2023-03-01T00:49:55;18.67;;;9.27;;
77226;SDS011;66234;47.642;19.144;2023-03-01T00:52:57;21.73;;;9.13;;
77226;SDS011;66234;47.642;19.144;2023-03-01T00:56:00;21.07;;;9.23;;
77226;SDS011;66234;47.642;19.144;2023-03-01T00:59:03;18.00;;;8.53;;
77226;SDS011;66234;47.642;19.144;2023-03-01T01:02:05;17.75;;;8.80;;
77226;SDS011;66234;47.642;19.144;2023-03-01T01:05:08;21.02;;;9.70;;
77226;SDS011;66234;47.642;19.144;2023-03-01T01:08:11;20.58;;;10.55;;
77226;SDS011;66234;47.642;19.144;2023-03-01T01:11:14;18.67;;;9.90;;
77226;SDS011;66234;47.642;19.144;2023-03-01T01:14:17;22.87;;;10.53;;
77226;SDS011;66234;47.642;19.144;2023-03-01T01:17:21;18.65;;;10.10;;
77226;SDS011;66234;47.642;19.144;2023-03-01T01:20:24;25.15;;;10.40;;
77226;SDS011;66234;47.642;19.144;2023-03-01T01:23:27;22.63;;;10.55;;
77226;SDS011;66234;47.642;19.144;2023-03-01T01:26:30;17.90;;;9.83;;
77226;SDS011;66234;47.642;19.144;2023-03-01T01:29:35;20.43;;;9.83;;
77226;SDS011;66234;47.642;19.144;2023-03-01T01:32:37;19.98;;;9.80;;
77226;SDS011;66234;47.642;19.144;2023-03-01T01:35:40;19.90;;;10.18;;
77226;SDS011;66234;47.642;19.144;2023-03-01T01:38:42;20.17;;;10.52;;
77226;SDS011;66234;47.642;19.144;2023-03-01T01:41:45;20.13;;;10.70;;
77226;SDS011;66234;47.642;19.144;2023-03-01T01:45:15;17.80;;;9.53;;
77226;SDS011;66234;47.642;19.144;2023-03-01T01:48:50;20.75;;;10.77;;
77226;SDS011;66234;47.642;19.144;2023-03-01T01:55:14;21.95;;;11.10;;
77226;SDS011;66234;47.642;19.144;2023-03-01T01:58:21;27.70;;;12.07;;
77226;SDS011;66234;47.642;19.144;2023-03-01T02:01:24;28.23;;;11.47;;
77226;SDS011;66234;47.642;19.144;2023-03-01T02:04:27;20.23;;;10.48;;
77226;SDS011;66234;47.642;19.144;2023-03-01T02:07:31;22.95;;;11.40;;
77226;SDS011;66234;47.642;19.144;2023-03-01T02:10:35;21.80;;;10.52;;
77226;SDS011;66234;47.642;19.144;2023-03-01T02:13:39;20.80;;;10.73;;
77226;SDS011;66234;47.642;19.144;2023-03-01T02:16:41;19.63;;;9.43;;
77226;SDS011;66234;47.642;19.144;2023-03-01T02:23:00;19.48;;;8.82;;
77226;SDS011;66234;47.642;19.144;2023-03-01T02:26:20;17.25;;;8.52;;
77226;SDS011;66234;47.642;19.144;2023-03-01T02:29:34;21.83;;;10.27;;
77226;SDS011;66234;47.642;19.144;2023-03-01T02:32:38;17.50;;;9.60;;
77226;SDS011;66234;47.642;19.144;2023-03-01T02:35:43;17.38;;;9.18;;
77226;SDS011;66234;47.642;19.144;2023-03-01T02:38:47;19.65;;;9.80;;
77226;SDS011;66234;47.642;19.144;2023-03-01T02:41:53;16.15;;;8.93;;
77226;SDS011;66234;47.642;19.144;2023-03-01T02:44:57;20.67;;;9.27;;
77226;SDS011;66234;47.642;19.144;2023-03-01T02:48:00;16.10;;;9.23;;
77226;SDS011;66234;47.642;19.144;2023-03-01T02:54:38;19.80;;;9.95;;
77226;SDS011;66234;47.642;19.144;2023-03-01T02:57:43;24.20;;;9.90;;
77226;SDS011;66234;47.642;19.144;2023-03-01T03:00:48;19.37;;;9.93;;
77226;SDS011;66234;47.642;19.144;2023-03-01T03:03:52;18.17;;;8.80;;
77226;SDS011;66234;47.642;19.144;2023-03-01T03:06:55;18.08;;;9.07;;
77226;SDS011;66234;47.642;19.144;2023-03-01T03:09:57;19.17;;;9.68;;
77226;SDS011;66234;47.642;19.144;2023-03-01T03:13:01;20.02;;;9.13;;
77226;SDS011;66234;47.642;19.144;2023-03-01T03:16:09;21.90;;;10.00;;
77226;SDS011;66234;47.642;19.144;2023-03-01T03:19:11;17.43;;;8.53;;
77226;SDS011;66234;47.642;19.144;2023-03-01T03:22:15;20.95;;;9.18;;
77226;SDS011;66234;47.642;19.144;2023-03-01T03:25:19;21.75;;;9.00;;
77226;SDS011;66234;47.642;19.144;2023-03-01T03:28:22;18.13;;;9.40;;
77226;SDS011;66234;47.642;19.144;2023-03-01T03:31:25;19.73;;;9.03;;
77226;SDS011;66234;47.642;19.144;2023-03-01T03:34:27;16.87;;;9.07;;
77226;SDS011;66234;47.642;19.144;2023-03-01T03:37:30;22.30;;;9.98;;
77226;SDS011;66234;47.642;19.144;2023-03-01T03:40:55;18.83;;;9.98;;
77226;SDS011;66234;47.642;19.144;2023-03-01T03:44:06;19.85;;;9.02;;
77226;SDS011;66234;47.642;19.144;2023-03-01T03:47:09;16.90;;;10.30;;
77226;SDS011;66234;47.642;19.144;2023-03-01T03:50:13;16.80;;;9.70;;
77226;SDS011;66234;47.642;19.144;2023-03-01T03:53:18;19.00;;;10.07;;
77226;SDS011;66234;47.642;19.144;2023-03-01T03:56:21;21.65;;;9.43;;
77226;SDS011;66234;47.642;19.144;2023-03-01T03:59:30;19.40;;;10.10;;
77226;SDS011;66234;47.642;19.144;2023-03-01T04:02:32;20.53;;;9.93;;
77226;SDS011;66234;47.642;19.144;2023-03-01T04:05:35;19.23;;;9.30;;
77226;SDS011;66234;47.642;19.144;2023-03-01T04:08:39;22.55;;;9.07;;
77226;SDS011;66234;47.642;19.144;2023-03-01T04:11:41;20.60;;;8.90;;
77226;SDS011;66234;47.642;19.144;2023-03-01T04:14:44;19.98;;;10.13;;
77226;SDS011;66234;47.642;19.144;2023-03-01T04:17:50;23.33;;;10.90;;
77226;SDS011;66234;47.642;19.144;2023-03-01T04:20:55;23.50;;;11.77;;
77226;SDS011;66234;47.642;19.144;2023-03-01T04:23:57;20.83;;;10.30;;
77226;SDS011;66234;47.642;19.144;2023-03-01T04:27:00;22.58;;;9.80;;
77226;SDS011;66234;47.642;19.144;2023-03-01T04:30:04;17.75;;;8.95;;
77226;SDS011;66234;47.642;19.144;2023-03-01T04:33:09;26.37;;;9.70;;
77226;SDS011;66234;47.642;19.144;2023-03-01T04:36:12;16.00;;;7.77;;
77226;SDS011;66234;47.642;19.144;2023-03-01T04:39:16;16.80;;;8.05;;
77226;SDS011;66234;47.642;19.144;2023-03-01T04:42:19;18.08;;;8.73;;
77226;SDS011;66234;47.642;19.144;2023-03-01T04:45:22;17.33;;;8.20;;
77226;SDS011;66234;47.642;19.144;2023-03-01T04:48:24;15.37;;;8.30;;
77226;SDS011;66234;47.642;19.144;2023-03-01T04:51:27;18.07;;;8.83;;
77226;SDS011;66234;47.642;19.144;2023-03-01T04:54:31;19.60;;;9.75;;
77226;SDS011;66234;47.642;19.144;2023-03-01T04:57:35;17.55;;;8.55;;
77226;SDS011;66234;47.642;19.144;2023-03-01T05:00:38;17.17;;;8.73;;
77226;SDS011;66234;47.642;19.144;2023-03-01T05:03:42;18.20;;;8.73;;
77226;SDS011;66234;47.642;19.144;2023-03-01T05:06:48;16.33;;;8.33;;
77226;SDS011;66234;47.642;19.144;2023-03-01T05:09:52;17.40;;;8.60;;
77226;SDS011;66234;47.642;19.144;2023-03-01T05:12:56;23.17;;;8.90;;
77226;SDS011;66234;47.642;19.144;2023-03-01T05:16:00;14.10;;;7.43;;
77226;SDS011;66234;47.642;19.144;2023-03-01T05:19:04;17.30;;;8.43;;
77226;SDS011;66234;47.642;19.144;2023-03-01T05:22:13;17.90;;;8.20;;
77226;SDS011;66234;47.642;19.144;2023-03-01T05:25:16;16.77;;;7.75;;
77226;SDS011;66234;47.642;19.144;2023-03-01T05:28:19;17.10;;;7.75;;
77226;SDS011;66234;47.642;19.144;2023-03-01T05:31:22;17.00;;;8.43;;
77226;SDS011;66234;47.642;19.144;2023-03-01T05:34:25;13.13;;;7.60;;
77226;SDS011;66234;47.642;19.144;2023-03-01T05:37:34;15.00;;;7.63;;
77226;SDS011;66234;47.642;19.144;2023-03-01T05:40:42;17.48;;;8.35;;
77226;SDS011;66234;47.642;19.144;2023-03-01T05:43:46;19.50;;;8.18;;
77226;SDS011;66234;47.642;19.144;2023-03-01T05:46:49;24.02;;;8.38;;
77226;SDS011;66234;47.642;19.144;2023-03-01T05:49:52;18.83;;;8.80;;
77226;SDS011;66234;47.642;19.144;2023-03-01T05:56:08;19.08;;;8.57;;
77226;SDS011;66234;47.642;19.144;2023-03-01T05:59:10;16.65;;;8.40;;
77226;SDS011;66234;47.642;19.144;2023-03-01T06:02:14;17.65;;;8.05;;
77226;SDS011;66234;47.642;19.144;2023-03-01T06:05:16;23.27;;;9.67;;
77226;SDS011;66234;47.642;19.144;2023-03-01T06:08:20;20.43;;;8.47;;
77226;SDS011;66234;47.642;19.144;2023-03-01T06:11:24;19.48;;;8.75;;
77226;SDS011;66234;47.642;19.144;2023-03-01T06:14:27;20.70;;;9.32;;
77226;SDS011;66234;47.642;19.144;2023-03-01T06:17:30;24.77;;;11.50;;
77226;SDS011;66234;47.642;19.144;2023-03-01T06:20:34;20.47;;;9.93;;
77226;SDS011;66234;47.642;19.144;2023-03-01T06:23:37;20.10;;;10.10;;
77226;SDS011;66234;47.642;19.144;2023-03-01T06:26:40;22.05;;;10.15;;
77226;SDS011;66234;47.642;19.144;2023-03-01T06:29:42;24.38;;;11.13;;
77226;SDS011;66234;47.642;19.144;2023-03-01T06:32:45;19.45;;;9.70;;
77226;SDS011;66234;47.642;19.144;2023-03-01T06:35:48;21.53;;;10.63;;
77226;SDS011;66234;47.642;19.144;2023-03-01T06:38:51;19.07;;;9.23;;
77226;SDS011;66234;47.642;19.144;2023-03-01T06:41:53;18.10;;;8.93;;
77226;SDS011;66234;47.642;19.144;2023-03-01T06:44:56;20.42;;;8.90;;
77226;SDS011;66234;47.642;19.144;2023-03-01T06:48:05;17.48;;;8.80;;
77226;SDS011;66234;47.642;19.144;2023-03-01T06:51:09;17.77;;;8.67;;
77226;SDS011;66234;47.642;19.144;2023-03-01T06:54:12;17.53;;;9.03;;
77226;SDS011;66234;47.642;19.144;2023-03-01T06:57:14;21.42;;;9.10;;
77226;SDS011;66234;47.642;19.144;2023-03-01T07:00:21;19.85;;;10.90;;
77226;SDS011;66234;47.642;19.144;2023-03-01T07:03:26;16.75;;;9.20;;
77226;SDS011;66234;47.642;19.144;2023-03-01T07:06:29;20.47;;;9.03;;
77226;SDS011;66234;47.642;19.144;2023-03-01T07:09:32;17.97;;;8.90;;
77226;SDS011;66234;47.642;19.144;2023-03-01T07:12:35;24.27;;;9.52;;
77226;SDS011;66234;47.642;19.144;2023-03-01T07:15:39;20.73;;;9.10;;
77226;SDS011;66234;47.642;19.144;2023-03-01T07:18:44;25.90;;;11.75;;
77226;SDS011;66234;47.642;19.144;2023-03-01T07:21:47;19.70;;;10.43;;
77226;SDS011;66234;47.642;19.144;2023-03-01T07:24:50;18.17;;;10.00;;
77226;SDS011;66234;47.642;19.144;2023-03-01T07:27:52;20.52;;;9.80;;
77226;SDS011;66234;47.642;19.144;2023-03-01T07:31:00;20.25;;;10.35;;
77226;SDS011;66234;47.642;19.144;2023-03-01T07:34:06;20.17;;;9.73;;
77226;SDS011;66234;47.642;19.144;2023-03-01T07:37:09;22.10;;;10.00;;
77226;SDS011;66234;47.642;19.144;2023-03-01T07:40:13;17.10;;;8.97;;
77226;SDS011;66234;47.642;19.144;2023-03-01T07:43:17;18.80;;;8.70;;
77226;SDS011;66234;47.642;19.144;2023-03-01T07:46:20;17.90;;;8.68;;
77226;SDS011;66234;47.642;19.144;2023-03-01T07:49:23;17.65;;;8.80;;
77226;SDS011;66234;47.642;19.144;2023-03-01T07:52:28;21.43;;;9.13;;
77226;SDS011;66234;47.642;19.144;2023-03-01T07:55:35;15.70;;;8.07;;
77226;SDS011;66234;47.642;19.144;2023-03-01T07:58:40;16.90;;;8.20;;
77226;SDS011;66234;47.642;19.144;2023-03-01T08:01:46;18.70;;;8.63;;
77226;SDS011;66234;47.642;19.144;2023-03-01T08:04:49;18.42;;;8.77;;
77226;SDS011;66234;47.642;19.144;2023-03-01T08:07:53;17.50;;;8.03;;
77226;SDS011;66234;47.642;19.144;2023-03-01T08:10:59;16.57;;;9.13;;
77226;SDS011;66234;47.642;19.144;2023-03-01T08:14:05;14.82;;;8.68;;
77226;SDS011;66234;47.642;19.144;2023-03-01T08:17:13;18.40;;;8.80;;
77226;SDS011;66234;47.642;19.144;2023-03-01T08:20:20;14.50;;;7.80;;
77226;SDS011;66234;47.642;19.144;2023-03-01T08:23:23;17.10;;;8.77;;
77226;SDS011;66234;47.642;19.144;2023-03-01T08:26:27;15.00;;;8.10;;
77226;SDS011;66234;47.642;19.144;2023-03-01T08:29:31;16.98;;;9.13;;
77226;SDS011;66234;47.642;19.144;2023-03-01T08:32:35;17.50;;;8.27;;
77226;SDS011;66234;47.642;19.144;2023-03-01T08:35:41;16.45;;;7.70;;
77226;SDS011;66234;47.642;19.144;2023-03-01T08:38:44;12.27;;;6.93;;
77226;SDS011;66234;47.642;19.144;2023-03-01T08:41:52;14.03;;;8.07;;
77226;SDS011;66234;47.642;19.144;2023-03-01T08:44:57;18.40;;;8.27;;
77226;SDS011;66234;47.642;19.144;2023-03-01T08:48:01;14.35;;;7.82;;
77226;SDS011;66234;47.642;19.144;2023-03-01T08:51:09;14.75;;;8.38;;
77226;SDS011;66234;47.642;19.144;2023-03-01T08:54:20;20.63;;;8.00;;
77226;SDS011;66234;47.642;19.144;2023-03-01T08:57:25;17.57;;;7.87;;
77226;SDS011;66234;47.642;19.144;2023-03-01T09:00:36;12.90;;;7.13;;
77226;SDS011;66234;47.642;19.144;2023-03-01T09:03:49;14.27;;;7.97;;
77226;SDS011;66234;47.642;19.144;2023-03-01T09:07:08;16.33;;;7.55;;
77226;SDS011;66234;47.642;19.144;2023-03-01T09:10:25;15.03;;;7.57;;
77226;SDS011;66234;47.642;19.144;2023-03-01T09:13:29;17.73;;;8.53;;
77226;SDS011;66234;47.642;19.144;2023-03-01T09:16:34;14.93;;;7.70;;
77226;SDS011;66234;47.642;19.144;2023-03-01T09:19:39;15.23;;;7.57;;
77226;SDS011;66234;47.642;19.144;2023-03-01T09:22:43;15.23;;;7.50;;
77226;SDS011;66234;47.642;19.144;2023-03-01T09:25:47;19.33;;;7.53;;
77226;SDS011;66234;47.642;19.144;2023-03-01T09:28:52;11.67;;;6.97;;
77226;SDS011;66234;47.642;19.144;2023-03-01T09:31:58;16.98;;;7.80;;
77226;SDS011;66234;47.642;19.144;2023-03-01T09:35:02;14.02;;;6.90;;
77226;SDS011;66234;47.642;19.144;2023-03-01T09:38:11;16.13;;;7.70;;
77226;SDS011;66234;47.642;19.144;2023-03-01T09:44:40;13.10;;;7.67;;
77226;SDS011;66234;47.642;19.144;2023-03-01T09:47:53;13.55;;;7.35;;
77226;SDS011;66234;47.642;19.144;2023-03-01T09:51:00;15.90;;;8.40;;
77226;SDS011;66234;47.642;19.144;2023-03-01T09:54:10;14.77;;;7.25;;
77226;SDS011;66234;47.642;19.144;2023-03-01T09:57:17;15.27;;;7.53;;
77226;SDS011;66234;47.642;19.144;2023-03-01T10:00:44;21.07;;;8.33;;
77226;SDS011;66234;47.642;19.144;2023-03-01T10:04:41;16.42;;;7.50;;
77226;SDS011;66234;47.642;19.144;2023-03-01T10:10:57;15.50;;;7.68;;
77226;SDS011;66234;47.642;19.144;2023-03-01T10:14:07;17.17;;;7.53;;
77226;SDS011;66234;47.642;19.144;2023-03-01T10:17:45;14.43;;;6.53;;
77226;SDS011;66234;47.642;19.144;2023-03-01T10:20:58;12.27;;;6.13;;
77226;SDS011;66234;47.642;19.144;2023-03-01T10:24:10;13.98;;;6.50;;
77226;SDS011;66234;47.642;19.144;2023-03-01T10:27:21;14.57;;;7.43;;
77226;SDS011;66234;47.642;19.144;2023-03-01T10:33:41;12.17;;;5.80;;
77226;SDS011;66234;47.642;19.144;2023-03-01T10:36:47;10.15;;;5.78;;
77226;SDS011;66234;47.642;19.144;2023-03-01T10:40:04;12.73;;;6.55;;
77226;SDS011;66234;47.642;19.144;2023-03-01T10:43:12;13.00;;;5.93;;
77226;SDS011;66234;47.642;19.144;2023-03-01T10:49:31;12.77;;;6.53;;
77226;SDS011;66234;47.642;19.144;2023-03-01T10:52:35;11.70;;;6.00;;
77226;SDS011;66234;47.642;19.144;2023-03-01T10:55:39;14.13;;;6.95;;
77226;SDS011;66234;47.642;19.144;2023-03-01T11:02:17;13.05;;;6.13;;
77226;SDS011;66234;47.642;19.144;2023-03-01T11:05:26;10.07;;;6.03;;
77226;SDS011;66234;47.642;19.144;2023-03-01T11:08:45;10.88;;;5.00;;
77226;SDS011;66234;47.642;19.144;2023-03-01T11:11:56;7.78;;;4.05;;
77226;SDS011;66234;47.642;19.144;2023-03-01T11:15:01;8.15;;;4.47;;
77226;SDS011;66234;47.642;19.144;2023-03-01T11:18:05;7.97;;;4.03;;
77226;SDS011;66234;47.642;19.144;2023-03-01T11:21:26;7.50;;;3.90;;
77226;SDS011;66234;47.642;19.144;2023-03-01T11:24:46;8.73;;;3.88;;
77226;SDS011;66234;47.642;19.144;2023-03-01T11:28:05;7.55;;;4.00;;
77226;SDS011;66234;47.642;19.144;2023-03-01T11:31:11;7.88;;;3.25;;
77226;SDS011;66234;47.642;19.144;2023-03-01T11:34:17;7.40;;;4.00;;
77226;SDS011;66234;47.642;19.144;2023-03-01T11:43:50;6.45;;;3.70;;
77226;SDS011;66234;47.642;19.144;2023-03-01T11:50:50;6.43;;;4.10;;
77226;SDS011;66234;47.642;19.144;2023-03-01T11:54:30;5.73;;;3.50;;
77226;SDS011;66234;47.642;19.144;2023-03-01T11:57:34;6.72;;;3.95;;
77226;SDS011;66234;47.642;19.144;2023-03-01T12:17:44;7.45;;;3.60;;
77226;SDS011;66234;47.642;19.144;2023-03-01T12:21:18;6.80;;;3.70;;
77226;SDS011;66234;47.642;19.144;2023-03-01T12:34:42;6.63;;;3.60;;
77226;SDS011;66234;47.642;19.144;2023-03-01T12:44:28;7.67;;;3.47;;
77226;SDS011;66234;47.642;19.144;2023-03-01T12:47:55;7.68;;;3.72;;
77226;SDS011;66234;47.642;19.144;2023-03-01T12:51:12;5.13;;;2.78;;
77226;SDS011;66234;47.642;19.144;2023-03-01T12:54:25;6.10;;;3.60;;
77226;SDS011;66234;47.642;19.144;2023-03-01T12:57:32;5.73;;;3.60;;
77226;SDS011;66234;47.642;19.144;2023-03-01T13:00:51;6.00;;;3.40;;
77226;SDS011;66234;47.642;19.144;2023-03-01T13:07:36;5.85;;;3.80;;
77226;SDS011;66234;47.642;19.144;2023-03-01T13:11:01;6.45;;;4.22;;
77226;SDS011;66234;47.642;19.144;2023-03-01T13:17:32;5.60;;;3.93;;
77226;SDS011;66234;47.642;19.144;2023-03-01T13:23:47;7.53;;;4.40;;
77226;SDS011;66234;47.642;19.144;2023-03-01T13:33:46;7.70;;;3.53;;
77226;SDS011;66234;47.642;19.144;2023-03-01T13:36:52;7.95;;;5.25;;
77226;SDS011;66234;47.642;19.144;2023-03-01T13:43:42;4.15;;;3.10;;
77226;SDS011;66234;47.642;19.144;2023-03-01T13:46:47;6.93;;;3.43;;
77226;SDS011;66234;47.642;19.144;2023-03-01T13:49:55;4.80;;;3.10;;
77226;SDS011;66234;47.642;19.144;2023-03-01T13:53:00;9.40;;;3.35;;
77226;SDS011;66234;47.642;19.144;2023-03-01T13:56:12;6.80;;;3.35;;
77226;SDS011;66234;47.642;19.144;2023-03-01T13:59:19;8.02;;;3.80;;
77226;SDS011;66234;47.642;19.144;2023-03-01T14:02:25;6.07;;;3.77;;
77226;SDS011;66234;47.642;19.144;2023-03-01T14:05:28;6.00;;;4.03;;
77226;SDS011;66234;47.642;19.144;2023-03-01T14:08:33;7.22;;;4.40;;
77226;SDS011;66234;47.642;19.144;2023-03-01T14:15:01;5.82;;;3.60;;
77226;SDS011;66234;47.642;19.144;2023-03-01T14:18:10;6.20;;;3.27;;
77226;SDS011;66234;47.642;19.144;2023-03-01T14:21:29;8.20;;;4.27;;
77226;SDS011;66234;47.642;19.144;2023-03-01T14:24:32;37.63;;;20.73;;
77226;SDS011;66234;47.642;19.144;2023-03-01T14:27:39;24.13;;;12.15;;
77226;SDS011;66234;47.642;19.144;2023-03-01T14:30:49;6.47;;;3.28;;
77226;SDS011;66234;47.642;19.144;2023-03-01T14:33:56;5.50;;;3.70;;
77226;SDS011;66234;47.642;19.144;2023-03-01T14:37:09;7.53;;;4.60;;
77226;SDS011;66234;47.642;19.144;2023-03-01T14:43:32;7.55;;;4.20;;
77226;SDS011;66234;47.642;19.144;2023-03-01T14:46:38;6.50;;;4.00;;
77226;SDS011;66234;47.642;19.144;2023-03-01T14:49:43;5.97;;;4.10;;
77226;SDS011;66234;47.642;19.144;2023-03-01T14:52:46;5.13;;;3.67;;
77226;SDS011;66234;47.642;19.144;2023-03-01T14:55:54;5.68;;;3.75;;
77226;SDS011;66234;47.642;19.144;2023-03-01T14:58:58;5.72;;;3.58;;
77226;SDS011;66234;47.642;19.144;2023-03-01T15:02:01;7.45;;;3.55;;
77226;SDS011;66234;47.642;19.144;2023-03-01T15:05:05;5.43;;;3.23;;
77226;SDS011;66234;47.642;19.144;2023-03-01T15:08:17;6.23;;;3.53;;
77226;SDS011;66234;47.642;19.144;2023-03-01T15:11:32;8.05;;;3.40;;
77226;SDS011;66234;47.642;19.144;2023-03-01T15:14:39;6.65;;;3.30;;
77226;SDS011;66234;47.642;19.144;2023-03-01T15:17:54;7.20;;;4.40;;
77226;SDS011;66234;47.642;19.144;2023-03-01T15:21:06;5.90;;;3.60;;
77226;SDS011;66234;47.642;19.144;2023-03-01T15:24:19;7.87;;;4.70;;
77226;SDS011;66234;47.642;19.144;2023-03-01T15:27:25;6.30;;;3.10;;
77226;SDS011;66234;47.642;19.144;2023-03-01T15:30:32;7.00;;;3.63;;
77226;SDS011;66234;47.642;19.144;2023-03-01T15:33:40;9.43;;;3.20;;
77226;SDS011;66234;47.642;19.144;2023-03-01T15:36:49;9.37;;;3.63;;
77226;SDS011;66234;47.642;19.144;2023-03-01T15:39:54;4.77;;;2.77;;
77226;SDS011;66234;47.642;19.144;2023-03-01T15:42:59;5.68;;;3.00;;
77226;SDS011;66234;47.642;19.144;2023-03-01T15:46:03;14.13;;;4.95;;
77226;SDS011;66234;47.642;19.144;2023-03-01T15:49:21;7.88;;;3.60;;
77226;SDS011;66234;47.642;19.144;2023-03-01T15:52:29;11.60;;;4.33;;
77226;SDS011;66234;47.642;19.144;2023-03-01T15:55:38;6.83;;;3.70;;
77226;SDS011;66234;47.642;19.144;2023-03-01T15:58:41;7.65;;;4.18;;
77226;SDS011;66234;47.642;19.144;2023-03-01T16:01:44;6.53;;;3.70;;
77226;SDS011;66234;47.642;19.144;2023-03-01T16:04:47;8.07;;;3.70;;
77226;SDS011;66234;47.642;19.144;2023-03-01T16:07:52;6.83;;;3.50;;
77226;SDS011;66234;47.642;19.144;2023-03-01T16:10:58;8.10;;;3.80;;
77226;SDS011;66234;47.642;19.144;2023-03-01T16:14:01;5.68;;;3.35;;
77226;SDS011;66234;47.642;19.144;2023-03-01T16:17:05;8.95;;;3.92;;
77226;SDS011;66234;47.642;19.144;2023-03-01T16:20:08;6.90;;;3.42;;
77226;SDS011;66234;47.642;19.144;2023-03-01T16:23:18;7.23;;;3.73;;
77226;SDS011;66234;47.642;19.144;2023-03-01T16:26:20;8.90;;;3.83;;
77226;SDS011;66234;47.642;19.144;2023-03-01T16:29:23;7.88;;;4.30;;
77226;SDS011;66234;47.642;19.144;2023-03-01T16:32:26;8.75;;;4.20;;
77226;SDS011;66234;47.642;19.144;2023-03-01T16:35:28;12.13;;;5.07;;
77226;SDS011;66234;47.642;19.144;2023-03-01T16:38:31;13.00;;;5.97;;
77226;SDS011;66234;47.642;19.144;2023-03-01T16:41:34;36.90;;;12.80;;
77226;SDS011;66234;47.642;19.144;2023-03-01T16:44:37;32.53;;;12.95;;
77226;SDS011;66234;47.642;19.144;2023-03-01T16:47:40;25.55;;;10.32;;
77226;SDS011;66234;47.642;19.144;2023-03-01T16:50:43;27.23;;;7.20;;
77226;SDS011;66234;47.642;19.144;2023-03-01T16:53:46;19.77;;;7.43;;
77226;SDS011;66234;47.642;19.144;2023-03-01T16:56:49;37.87;;;27.87;;
77226;SDS011;66234;47.642;19.144;2023-03-01T16:59:52;43.40;;;24.50;;
77226;SDS011;66234;47.642;19.144;2023-03-01T17:02:57;34.30;;;20.00;;
77226;SDS011;66234;47.642;19.144;2023-03-01T17:06:01;30.25;;;14.40;;
77226;SDS011;66234;47.642;19.144;2023-03-01T17:09:04;32.17;;;13.30;;
77226;SDS011;66234;47.642;19.144;2023-03-01T17:12:07;32.33;;;13.43;;
77226;SDS011;66234;47.642;19.144;2023-03-01T17:15:10;21.83;;;11.13;;
77226;SDS011;66234;47.642;19.144;2023-03-01T17:18:14;25.55;;;10.43;;
77226;SDS011;66234;47.642;19.144;2023-03-01T17:21:16;26.88;;;12.70;;
77226;SDS011;66234;47.642;19.144;2023-03-01T17:24:19;22.90;;;11.20;;
77226;SDS011;66234;47.642;19.144;2023-03-01T17:27:21;53.07;;;19.63;;
77226;SDS011;66234;47.642;19.144;2023-03-01T17:30:26;43.88;;;18.10;;
77226;SDS011;66234;47.642;19.144;2023-03-01T17:33:30;41.78;;;17.38;;
77226;SDS011;66234;47.642;19.144;2023-03-01T17:36:33;34.25;;;16.15;;
77226;SDS011;66234;47.642;19.144;2023-03-01T17:39:42;34.87;;;14.33;;
77226;SDS011;66234;47.642;19.144;2023-03-01T17:42:45;32.63;;;15.87;;
77226;SDS011;66234;47.642;19.144;2023-03-01T17:45:48;31.13;;;16.52;;
77226;SDS011;66234;47.642;19.144;2023-03-01T17:48:52;35.67;;;17.77;;
77226;SDS011;66234;47.642;19.144;2023-03-01T17:51:55;49.15;;;19.17;;
77226;SDS011;66234;47.642;19.144;2023-03-01T17:54:58;38.80;;;18.97;;
77226;SDS011;66234;47.642;19.144;2023-03-01T17:58:03;33.53;;;19.47;;
77226;SDS011;66234;47.642;19.144;2023-03-01T18:01:13;40.03;;;20.38;;
77226;SDS011;66234;47.642;19.144;2023-03-01T18:04:21;35.35;;;18.10;;
77226;SDS011;66234;47.642;19.144;2023-03-01T18:07:27;37.13;;;19.35;;
77226;SDS011;66234;47.642;19.144;2023-03-01T18:10:31;43.67;;;20.60;;
77226;SDS011;66234;47.642;19.144;2023-03-01T18:13:35;39.47;;;21.00;;
77226;SDS011;66234;47.642;19.144;2023-03-01T18:16:38;41.97;;;21.42;;
77226;SDS011;66234;47.642;19.144;2023-03-01T18:19:41;39.03;;;19.92;;
77226;SDS011;66234;47.642;19.144;2023-03-01T18:22:44;40.33;;;18.65;;
77226;SDS011;66234;47.642;19.144;2023-03-01T18:25:47;38.27;;;18.90;;
77226;SDS011;66234;47.642;19.144;2023-03-01T18:28:49;41.67;;;18.43;;
77226;SDS011;66234;47.642;19.144;2023-03-01T18:31:53;35.97;;;18.80;;
77226;SDS011;66234;47.642;19.144;2023-03-01T18:34:56;41.20;;;18.75;;
77226;SDS011;66234;47.642;19.144;2023-03-01T18:37:59;42.22;;;19.55;;
77226;SDS011;66234;47.642;19.144;2023-03-01T18:41:02;38.70;;;18.83;;
77226;SDS011;66234;47.642;19.144;2023-03-01T18:44:05;39.73;;;18.27;;
77226;SDS011;66234;47.642;19.144;2023-03-01T18:47:08;40.03;;;18.58;;
77226;SDS011;66234;47.642;19.144;2023-03-01T18:50:11;38.55;;;18.38;;
77226;SDS011;66234;47.642;19.144;2023-03-01T18:53:15;41.33;;;20.08;;
77226;SDS011;66234;47.642;19.144;2023-03-01T18:56:18;33.23;;;18.47;;
77226;SDS011;66234;47.642;19.144;2023-03-01T18:59:21;43.43;;;22.23;;
77226;SDS011;66234;47.642;19.144;2023-03-01T19:02:24;37.22;;;18.23;;
77226;SDS011;66234;47.642;19.144;2023-03-01T19:05:31;28.13;;;11.95;;
77226;SDS011;66234;47.642;19.144;2023-03-01T19:08:34;56.80;;;26.42;;
77226;SDS011;66234;47.642;19.144;2023-03-01T19:11:36;48.33;;;23.93;;
77226;SDS011;66234;47.642;19.144;2023-03-01T19:14:39;41.50;;;20.47;;
77226;SDS011;66234;47.642;19.144;2023-03-01T19:17:42;42.83;;;21.35;;
77226;SDS011;66234;47.642;19.144;2023-03-01T19:20:45;37.03;;;19.58;;
77226;SDS011;66234;47.642;19.144;2023-03-01T19:23:52;29.42;;;14.30;;
77226;SDS011;66234;47.642;19.144;2023-03-01T19:26:56;29.87;;;15.57;;
77226;SDS011;66234;47.642;19.144;2023-03-01T19:29:58;31.80;;;16.50;;
77226;SDS011;66234;47.642;19.144;2023-03-01T19:33:01;29.23;;;14.20;;
77226;SDS011;66234;47.642;19.144;2023-03-01T19:36:05;24.85;;;13.95;;
77226;SDS011;66234;47.642;19.144;2023-03-01T19:39:10;29.20;;;15.05;;
77226;SDS011;66234;47.642;19.144;2023-03-01T19:42:15;25.30;;;12.67;;
77226;SDS011;66234;47.642;19.144;2023-03-01T19:45:18;33.03;;;15.33;;
77226;SDS011;66234;47.642;19.144;2023-03-01T19:48:33;29.88;;;15.85;;